createdAt,value
2018-03-02T00:00:51.077Z,-5.12
2018-03-02T00:03:17.580Z,-5.21
2018-03-02T00:05:43.940Z,-5.19
2018-03-02T00:08:10.392Z,-5.18
2018-03-02T00:10:37.015Z,-5.25
2018-03-02T00:13:03.299Z,-5.24
2018-03-02T00:15:29.547Z,-5.24
2018-03-02T00:17:56.210Z,-5.25
2018-03-02T00:20:22.811Z,-5.28
2018-03-02T00:22:49.393Z,-5.29
2018-03-02T00:25:15.907Z,-5.34
2018-03-02T00:27:42.183Z,-5.31
2018-03-02T00:30:08.903Z,-5.40
2018-03-02T00:32:35.287Z,-5.41
2018-03-02T00:35:01.826Z,-5.41
2018-03-02T00:37:28.352Z,-5.45
2018-03-02T00:39:54.816Z,-5.51
2018-03-02T00:42:21.314Z,-5.47
2018-03-02T00:44:47.728Z,-5.51
2018-03-02T00:47:14.192Z,-5.49
2018-03-02T00:49:40.453Z,-5.48
2018-03-02T00:52:06.847Z,-5.48
2018-03-02T00:54:33.327Z,-5.49
2018-03-02T00:56:59.579Z,-5.53
2018-03-02T00:59:25.840Z,-5.56
2018-03-02T01:01:52.071Z,-5.53
2018-03-02T01:04:19.697Z,-5.49
2018-03-02T01:06:45.939Z,-5.47
2018-03-02T01:09:12.462Z,-5.52
2018-03-02T01:11:38.792Z,-5.52
2018-03-02T01:14:05.321Z,-5.57
2018-03-02T01:16:31.824Z,-5.49
2018-03-02T01:18:58.099Z,-5.53
2018-03-02T01:21:24.536Z,-5.58
2018-03-02T01:23:50.776Z,-5.56
2018-03-02T01:26:17.217Z,-5.57
2018-03-02T01:28:43.477Z,-5.59
2018-03-02T01:31:10.059Z,-5.59
2018-03-02T01:33:36.494Z,-5.60
2018-03-02T01:36:03.080Z,-5.69
2018-03-02T01:38:29.625Z,-5.67
2018-03-02T01:40:56.036Z,-5.62
2018-03-02T01:43:22.441Z,-5.68
2018-03-02T01:45:48.683Z,-5.70
2018-03-02T01:48:15.471Z,-5.66
2018-03-02T01:50:42.075Z,-5.63
2018-03-02T01:53:09.544Z,-5.66
2018-03-02T01:55:35.838Z,-5.70
2018-03-02T01:58:02.246Z,-5.68
2018-03-02T02:00:28.483Z,-5.77
2018-03-02T02:02:54.703Z,-5.71
2018-03-02T02:05:20.962Z,-5.75
2018-03-02T02:07:47.201Z,-5.68
2018-03-02T02:10:13.446Z,-5.65
2018-03-02T02:12:39.661Z,-5.67
2018-03-02T02:15:05.906Z,-5.67
2018-03-02T02:17:32.141Z,-5.69
2018-03-02T02:19:58.395Z,-5.70
2018-03-02T02:22:24.616Z,-5.68
2018-03-02T02:24:50.883Z,-5.69
2018-03-02T02:27:17.120Z,-5.68
2018-03-02T02:29:43.352Z,-5.77
2018-03-02T02:32:09.608Z,-5.80
2018-03-02T02:34:35.886Z,-5.89
2018-03-02T02:37:02.158Z,-5.85
2018-03-02T02:39:28.382Z,-5.97
2018-03-02T02:41:54.635Z,-5.93
2018-03-02T02:44:20.868Z,-5.95
2018-03-02T02:46:47.164Z,-6.01
2018-03-02T02:49:13.398Z,-6.02
2018-03-02T02:51:39.607Z,-6.04
2018-03-02T02:54:05.875Z,-6.02
2018-03-02T02:56:32.111Z,-6.03
2018-03-02T02:58:58.370Z,-6.09
2018-03-02T03:01:24.634Z,-6.11
2018-03-02T03:03:50.900Z,-6.09
2018-03-02T03:06:17.123Z,-6.21
2018-03-02T03:08:43.375Z,-6.21
2018-03-02T03:11:09.586Z,-6.21
2018-03-02T03:13:35.879Z,-6.20
2018-03-02T03:16:02.099Z,-6.18
2018-03-02T03:18:28.338Z,-6.24
2018-03-02T03:20:54.583Z,-6.25
2018-03-02T03:23:20.834Z,-6.38
2018-03-02T03:25:47.072Z,-6.33
2018-03-02T03:28:13.287Z,-6.23
2018-03-02T03:30:39.593Z,-6.27
2018-03-02T03:33:05.814Z,-6.29
2018-03-02T03:35:32.051Z,-6.30
2018-03-02T03:37:58.271Z,-6.32
2018-03-02T03:40:24.525Z,-6.35
2018-03-02T03:42:50.738Z,-6.29
2018-03-02T03:45:17.039Z,-6.34
2018-03-02T03:47:43.330Z,-6.36
2018-03-02T03:50:09.551Z,-6.31
2018-03-02T03:52:35.802Z,-6.31
2018-03-02T03:55:02.013Z,-6.25
2018-03-02T03:57:28.244Z,-6.25
2018-03-02T03:59:54.483Z,-6.28
2018-03-02T04:02:20.700Z,-6.29
2018-03-02T04:04:46.911Z,-6.30
2018-03-02T04:07:13.143Z,-6.30
2018-03-02T04:09:39.440Z,-6.29
2018-03-02T04:12:05.716Z,-6.26
2018-03-02T04:14:31.940Z,-6.18
2018-03-02T04:16:58.167Z,-6.20
2018-03-02T04:19:24.407Z,-6.11
2018-03-02T04:21:50.632Z,-6.19
2018-03-02T04:24:16.911Z,-6.11
2018-03-02T04:26:43.159Z,-6.13
2018-03-02T04:29:09.381Z,-6.09
2018-03-02T04:31:35.647Z,-6.04
2018-03-02T04:34:01.870Z,-6.05
2018-03-02T04:36:28.118Z,-6.07
2018-03-02T04:38:54.331Z,-6.03
2018-03-02T04:41:20.562Z,-6.09
2018-03-02T04:43:46.798Z,-6.13
2018-03-02T04:46:13.083Z,-6.08
2018-03-02T04:48:39.331Z,-6.07
2018-03-02T04:51:05.564Z,-6.04
2018-03-02T04:53:31.787Z,-6.02
2018-03-02T04:55:58.118Z,-5.96
2018-03-02T04:58:24.351Z,-5.96
2018-03-02T05:00:50.607Z,-5.98
2018-03-02T05:03:16.847Z,-5.97
2018-03-02T05:05:43.078Z,-5.98
2018-03-02T05:08:09.348Z,-5.95
2018-03-02T05:10:35.595Z,-5.95
2018-03-02T05:13:01.855Z,-5.97
2018-03-02T05:15:28.088Z,-5.90
2018-03-02T05:17:54.327Z,-5.90
2018-03-02T05:20:20.583Z,-5.90
2018-03-02T05:22:46.848Z,-5.91
2018-03-02T05:25:13.120Z,-5.91
2018-03-02T05:27:39.371Z,-5.85
2018-03-02T05:30:05.592Z,-5.82
2018-03-02T05:32:31.814Z,-5.79
2018-03-02T05:34:58.115Z,-5.80
2018-03-02T05:37:24.335Z,-5.77
2018-03-02T05:39:50.606Z,-5.82
2018-03-02T05:42:16.831Z,-5.75
2018-03-02T05:44:43.047Z,-5.72
2018-03-02T05:47:09.331Z,-5.64
2018-03-02T05:49:35.563Z,-5.55
2018-03-02T05:52:01.819Z,-5.50
2018-03-02T05:54:28.044Z,-5.47
2018-03-02T05:56:54.274Z,-5.57
2018-03-02T05:59:20.527Z,-5.62
2018-03-02T06:01:46.813Z,-5.62
2018-03-02T06:04:13.055Z,-5.57
2018-03-02T06:06:39.263Z,-5.51
2018-03-02T06:09:05.475Z,-5.45
2018-03-02T06:11:31.730Z,-5.39
2018-03-02T06:13:57.939Z,-5.39
2018-03-02T06:16:24.183Z,-5.25
2018-03-02T06:18:50.438Z,-5.21
2018-03-02T06:21:16.712Z,-5.20
2018-03-02T06:23:42.947Z,-5.16
2018-03-02T06:26:09.163Z,-5.22
2018-03-02T06:28:35.402Z,-5.19
2018-03-02T06:31:01.626Z,-5.10
2018-03-02T06:33:27.842Z,-5.06
2018-03-02T06:35:54.075Z,-5.00
2018-03-02T06:38:20.294Z,-4.97
2018-03-02T06:40:46.551Z,-4.92
2018-03-02T06:43:12.812Z,-4.93
2018-03-02T06:45:39.031Z,-4.85
2018-03-02T06:48:05.267Z,-4.76
2018-03-02T06:50:31.487Z,-4.77
2018-03-02T06:52:57.757Z,-4.78
2018-03-02T06:55:23.977Z,-4.58
2018-03-02T06:57:50.196Z,-4.46
2018-03-02T07:00:16.434Z,-4.42
2018-03-02T07:02:42.653Z,-4.37
2018-03-02T07:05:08.987Z,-4.20
2018-03-02T07:07:35.203Z,-4.12
2018-03-02T07:10:01.422Z,-3.98
2018-03-02T07:12:27.656Z,-3.87
2018-03-02T07:14:53.885Z,-3.71
2018-03-02T07:17:20.139Z,-3.52
2018-03-02T07:19:46.362Z,-3.14
2018-03-02T07:22:12.590Z,-2.93
2018-03-02T07:24:38.820Z,-2.88
2018-03-02T07:27:05.039Z,-2.57
2018-03-02T07:29:31.286Z,-2.09
2018-03-02T07:31:57.498Z,-1.57
2018-03-02T07:34:23.707Z,-1.37
2018-03-02T07:36:49.958Z,-1.35
2018-03-02T07:39:16.190Z,-1.24
2018-03-02T07:41:42.446Z,-1.52
2018-03-02T07:44:08.750Z,-1.85
2018-03-02T07:46:34.976Z,-2.18
2018-03-02T07:49:01.203Z,-2.33
2018-03-02T07:51:27.414Z,-2.34
2018-03-02T07:53:53.683Z,-1.82
2018-03-02T07:56:19.952Z,-1.02
2018-03-02T07:58:46.176Z,-0.50
2018-03-02T08:01:12.421Z,-0.38
2018-03-02T08:03:38.657Z,-0.89
2018-03-02T08:06:04.899Z,-1.40
2018-03-02T08:08:31.229Z,-1.17
2018-03-02T08:10:57.462Z,-0.46
2018-03-02T08:13:23.720Z,0.37
2018-03-02T08:15:49.952Z,0.99
2018-03-02T08:18:16.211Z,1.61
2018-03-02T08:20:42.436Z,2.30
2018-03-02T08:23:08.655Z,2.74
2018-03-02T08:25:34.893Z,3.31
2018-03-02T08:28:01.111Z,3.51
2018-03-02T08:30:27.440Z,4.05
2018-03-02T08:32:53.747Z,4.39
2018-03-02T08:35:19.963Z,4.72
2018-03-02T08:37:46.202Z,5.59
2018-03-02T08:40:12.462Z,5.93
2018-03-02T08:42:38.734Z,5.99
2018-03-02T08:45:04.947Z,6.26
2018-03-02T08:47:31.194Z,6.78
2018-03-02T08:49:57.511Z,7.39
2018-03-02T08:52:23.747Z,7.59
2018-03-02T08:54:50.063Z,7.87
2018-03-02T08:57:16.274Z,7.96
2018-03-02T08:59:42.525Z,8.31
2018-03-02T09:02:08.767Z,8.42
2018-03-02T09:04:34.983Z,8.50
2018-03-02T09:07:01.287Z,8.57
2018-03-02T09:09:27.499Z,8.59
2018-03-02T09:11:53.710Z,8.34
2018-03-02T09:14:19.978Z,8.38
2018-03-02T09:16:46.195Z,8.47
2018-03-02T09:19:12.430Z,8.44
2018-03-02T09:21:38.671Z,7.73
2018-03-02T09:24:04.883Z,7.46
2018-03-02T09:26:31.111Z,6.38
2018-03-02T09:28:57.359Z,6.06
2018-03-02T09:31:23.582Z,5.50
2018-03-02T09:33:49.795Z,5.31
2018-03-02T09:36:16.021Z,5.04
2018-03-02T09:38:42.282Z,6.09
2018-03-02T09:41:08.523Z,7.02
2018-03-02T09:43:34.753Z,7.20
2018-03-02T09:46:01.099Z,7.11
2018-03-02T09:48:27.340Z,6.90
2018-03-02T09:50:53.571Z,6.03
2018-03-02T09:53:19.803Z,5.76
2018-03-02T09:55:46.019Z,5.55
2018-03-02T09:58:12.246Z,5.55
2018-03-02T10:00:38.519Z,5.25
2018-03-02T10:03:04.743Z,5.41
2018-03-02T10:05:30.979Z,5.36
2018-03-02T10:07:57.186Z,5.40
2018-03-02T10:10:23.399Z,5.52
2018-03-02T10:12:49.639Z,5.45
2018-03-02T10:15:15.838Z,5.17
2018-03-02T10:17:42.083Z,5.02
2018-03-02T10:20:08.307Z,4.69
2018-03-02T10:22:34.525Z,4.57
2018-03-02T10:25:00.755Z,4.88
2018-03-02T10:27:26.963Z,4.62
2018-03-02T10:29:53.203Z,4.87
2018-03-02T10:32:19.423Z,3.75
2018-03-02T10:34:45.631Z,3.64
2018-03-02T10:37:11.874Z,4.30
2018-03-02T10:42:11.102Z,6.18
2018-03-02T10:44:37.313Z,7.23
2018-03-02T10:47:03.539Z,7.84
2018-03-02T10:49:29.783Z,8.06
2018-03-02T10:51:55.984Z,7.89
2018-03-02T10:54:22.220Z,7.83
2018-03-02T10:56:48.447Z,8.07
2018-03-02T10:59:14.658Z,7.91
2018-03-02T11:01:46.905Z,8.08
2018-03-02T11:04:17.203Z,8.52
2018-03-02T11:06:43.435Z,8.54
2018-03-02T11:09:09.648Z,8.25
2018-03-02T11:11:35.899Z,8.61
2018-03-02T11:14:02.108Z,8.16
2018-03-02T11:16:28.352Z,8.57
2018-03-02T11:18:54.595Z,9.37
2018-03-02T11:21:20.806Z,10.31
2018-03-02T11:23:47.107Z,10.25
2018-03-02T11:26:13.353Z,10.35
2018-03-02T11:28:39.575Z,11.51
2018-03-02T11:31:05.808Z,11.23
2018-03-02T11:33:32.036Z,11.78
2018-03-02T11:35:58.288Z,11.01
2018-03-02T11:38:24.511Z,9.95
2018-03-02T11:40:50.748Z,9.40
2018-03-02T11:43:16.986Z,9.82
2018-03-02T11:45:43.213Z,9.10
2018-03-02T11:48:09.472Z,8.92
2018-03-02T11:50:35.691Z,8.66
2018-03-02T11:53:01.911Z,10.55
2018-03-02T11:55:28.171Z,12.12
2018-03-02T11:57:54.379Z,12.33
2018-03-02T12:00:20.639Z,12.24
2018-03-02T12:02:46.852Z,12.96
2018-03-02T12:05:13.059Z,12.99
2018-03-02T12:07:39.283Z,14.43
2018-03-02T12:10:05.511Z,15.21
2018-03-02T12:12:31.752Z,14.96
2018-03-02T12:14:57.950Z,15.62
2018-03-02T12:17:24.155Z,15.85
2018-03-02T12:19:50.389Z,16.44
2018-03-02T12:22:16.595Z,15.93
2018-03-02T12:24:42.843Z,16.56
2018-03-02T12:27:09.147Z,17.23
2018-03-02T12:29:35.355Z,17.49
2018-03-02T12:32:01.614Z,17.93
2018-03-02T12:34:27.831Z,18.54
2018-03-02T12:36:54.079Z,18.74
2018-03-02T12:39:20.317Z,19.00
2018-03-02T12:41:46.539Z,19.37
2018-03-02T12:44:12.782Z,19.82
2018-03-02T12:46:38.999Z,19.95
2018-03-02T12:49:05.251Z,19.72
2018-03-02T12:51:31.475Z,18.15
2018-03-02T12:53:57.701Z,17.59
2018-03-02T12:56:23.956Z,18.50
2018-03-02T12:58:50.211Z,18.78
2018-03-02T13:01:16.454Z,18.50
2018-03-02T13:03:42.691Z,18.15
2018-03-02T13:06:08.904Z,19.08
2018-03-02T13:08:35.167Z,20.18
2018-03-02T13:11:01.408Z,20.95
2018-03-02T13:13:27.656Z,21.03
2018-03-02T13:15:53.874Z,20.76
2018-03-02T13:18:32.511Z,20.73
2018-03-02T13:20:58.731Z,19.96
2018-03-02T13:23:24.956Z,20.01
2018-03-02T13:25:51.212Z,20.36
2018-03-02T13:41:55.599Z,13.87
2018-03-02T13:44:21.850Z,13.95
2018-03-02T13:46:48.119Z,14.45
2018-03-02T14:03:06.121Z,16.99
2018-03-02T14:05:32.367Z,16.66
2018-03-02T14:07:58.659Z,16.87
2018-03-02T14:10:24.900Z,16.13
2018-03-02T14:12:51.108Z,16.25
2018-03-02T14:15:17.314Z,16.79
2018-03-02T14:17:43.544Z,16.70
2018-03-02T14:20:09.836Z,16.49
2018-03-02T14:22:36.093Z,16.02
2018-03-02T14:25:02.337Z,15.95
2018-03-02T14:27:28.552Z,15.70
2018-03-02T14:29:54.779Z,15.15
2018-03-02T14:32:20.992Z,14.30
2018-03-02T14:34:47.231Z,13.50
2018-03-02T14:37:13.465Z,13.36
2018-03-02T14:39:39.702Z,12.96
2018-03-02T14:42:05.951Z,12.44
2018-03-02T14:44:32.168Z,11.54
2018-03-02T14:46:58.398Z,11.51
2018-03-02T14:49:24.605Z,11.38
2018-03-02T14:51:50.807Z,11.09
2018-03-02T14:54:17.033Z,10.44
2018-03-02T14:56:43.255Z,9.90
2018-03-02T14:59:09.531Z,9.69
2018-03-02T15:01:35.776Z,9.94
2018-03-02T15:04:01.996Z,10.11
2018-03-02T15:06:28.283Z,10.10
2018-03-02T15:08:54.516Z,10.17
2018-03-02T15:11:20.765Z,10.50
2018-03-02T15:13:47.024Z,10.68
2018-03-02T15:16:13.232Z,10.62
2018-03-02T15:18:39.511Z,10.48
2018-03-02T15:21:05.755Z,9.25
2018-03-02T15:23:32.059Z,8.91
2018-03-02T15:25:58.283Z,8.99
2018-03-02T15:28:24.519Z,8.90
2018-03-02T15:30:50.794Z,8.60
2018-03-02T15:33:17.016Z,7.93
2018-03-02T15:35:43.262Z,6.86
2018-03-02T15:38:09.479Z,6.03
2018-03-02T15:40:35.690Z,5.30
2018-03-02T15:43:02.034Z,4.80
2018-03-02T15:45:28.235Z,4.34
2018-03-02T15:47:54.491Z,4.02
2018-03-02T15:50:20.750Z,3.65
2018-03-02T15:52:46.955Z,3.42
2018-03-02T15:55:13.211Z,3.24
2018-03-02T15:57:39.451Z,2.97
2018-03-02T16:00:05.672Z,2.75
2018-03-02T16:02:32.130Z,2.60
2018-03-02T16:04:58.375Z,2.50
2018-03-02T16:07:24.599Z,2.37
2018-03-02T16:09:50.846Z,2.27
2018-03-02T16:12:17.128Z,2.13
2018-03-02T16:14:43.339Z,2.07
2018-03-02T16:17:09.571Z,1.95
2018-03-02T16:19:35.905Z,1.75
2018-03-02T16:22:02.143Z,1.68
2018-03-02T16:24:28.444Z,1.69
2018-03-02T16:26:55.972Z,1.65
2018-03-02T16:29:22.215Z,1.65
2018-03-02T16:31:48.470Z,1.67
2018-03-02T16:34:14.711Z,1.60
2018-03-02T16:36:40.978Z,1.53
2018-03-02T16:39:07.211Z,1.44
2018-03-02T16:41:33.456Z,1.45
2018-03-02T16:43:59.673Z,1.48
2018-03-02T16:46:26.039Z,1.48
2018-03-02T16:48:52.266Z,1.39
2018-03-02T16:51:18.517Z,1.41
2018-03-02T16:53:44.763Z,1.35
2018-03-02T16:56:11.050Z,1.20
2018-03-02T16:58:37.386Z,1.10
2018-03-02T17:01:03.656Z,1.02
2018-03-02T17:03:29.895Z,0.98
2018-03-02T17:05:56.399Z,0.97
2018-03-02T17:08:22.610Z,0.93
2018-03-02T17:10:48.894Z,0.91
2018-03-02T17:13:15.120Z,0.90
2018-03-02T17:15:41.351Z,0.91
2018-03-02T17:18:07.607Z,0.84
2018-03-02T17:20:33.838Z,0.81
2018-03-02T17:23:00.101Z,0.75
2018-03-02T17:25:26.323Z,0.78
2018-03-02T17:27:52.667Z,0.71
2018-03-02T17:30:18.942Z,0.66
2018-03-02T17:32:45.183Z,0.60
2018-03-02T17:35:11.455Z,0.58
2018-03-02T17:37:37.667Z,0.58
2018-03-02T17:40:04.271Z,0.62
2018-03-02T17:42:30.552Z,0.56
2018-03-02T17:44:56.875Z,0.49
2018-03-02T17:47:23.727Z,0.39
2018-03-02T17:49:49.958Z,0.45
2018-03-02T17:52:16.183Z,0.39
2018-03-02T17:54:42.415Z,0.40
2018-03-02T17:57:08.699Z,0.41
2018-03-02T17:59:34.986Z,0.48
2018-03-02T18:02:01.242Z,0.47
2018-03-02T18:04:27.451Z,0.51
2018-03-02T18:06:53.687Z,0.49
2018-03-02T18:09:19.907Z,0.45
2018-03-02T18:11:46.191Z,0.43
2018-03-02T18:14:12.431Z,0.44
2018-03-02T18:16:38.742Z,0.41
2018-03-02T18:19:04.997Z,0.48
2018-03-02T18:21:31.241Z,0.44
2018-03-02T18:23:57.848Z,0.36
2018-03-02T18:26:24.306Z,0.33
2018-03-02T18:28:50.539Z,0.26
2018-03-02T18:31:16.895Z,0.20
2018-03-02T18:33:43.111Z,0.06
2018-03-02T18:36:09.503Z,-0.09
2018-03-02T18:38:35.760Z,-0.10
2018-03-02T18:41:02.011Z,-0.14
2018-03-02T18:43:28.429Z,-0.08
2018-03-02T18:45:54.672Z,-0.10
2018-03-02T18:48:20.996Z,-0.12
2018-03-02T18:50:47.230Z,-0.14
2018-03-02T18:53:13.721Z,-0.14
2018-03-02T18:55:39.967Z,-0.08
2018-03-02T18:58:06.335Z,-0.03
2018-03-02T19:00:32.583Z,0.00
2018-03-02T19:02:58.851Z,-0.09
2018-03-02T19:05:25.068Z,-0.19
2018-03-02T19:07:51.318Z,-0.16
2018-03-02T19:10:17.547Z,-0.15
2018-03-02T19:12:43.907Z,-0.12
2018-03-02T19:15:10.239Z,-0.10
2018-03-02T19:17:36.668Z,-0.08
2018-03-02T19:20:03.084Z,-0.12
2018-03-02T19:22:29.395Z,-0.15
2018-03-02T19:24:55.655Z,-0.09
2018-03-02T19:27:22.225Z,-0.04
2018-03-02T19:29:48.424Z,-0.06
2018-03-02T19:32:14.890Z,-0.15
2018-03-02T19:34:41.162Z,-0.15
2018-03-02T19:37:07.499Z,-0.17
2018-03-02T19:39:33.894Z,-0.18
2018-03-02T19:42:00.158Z,-0.13
2018-03-02T19:44:26.602Z,-0.19
2018-03-02T19:46:52.995Z,-0.17
2018-03-02T19:49:19.478Z,-0.12
2018-03-02T19:51:45.766Z,-0.07
2018-03-02T19:54:12.011Z,-0.09
2018-03-02T19:56:38.310Z,-0.16
2018-03-02T19:59:04.563Z,-0.09
2018-03-02T20:01:30.794Z,-0.21
2018-03-02T20:03:57.196Z,-0.23
2018-03-02T20:06:23.577Z,-0.23
2018-03-02T20:08:49.906Z,-0.28
2018-03-02T20:11:16.453Z,-0.32
2018-03-02T20:13:42.687Z,-0.32
2018-03-02T20:16:08.999Z,-0.28
2018-03-02T20:18:35.219Z,-0.33
2018-03-02T20:21:01.430Z,-0.36
2018-03-02T20:23:27.675Z,-0.33
2018-03-02T20:25:53.894Z,-0.32
2018-03-02T20:28:20.134Z,-0.32
2018-03-02T20:30:46.359Z,-0.31
2018-03-02T20:33:12.584Z,-0.34
2018-03-02T20:35:38.828Z,-0.38
2018-03-02T20:38:05.043Z,-0.41
2018-03-02T20:40:31.295Z,-0.38
2018-03-02T20:42:57.520Z,-0.36
2018-03-02T20:45:23.730Z,-0.38
2018-03-02T20:47:49.978Z,-0.46
2018-03-02T20:50:16.253Z,-0.54
2018-03-02T20:52:42.594Z,-0.54
2018-03-02T20:55:08.823Z,-0.48
2018-03-02T20:57:35.044Z,-0.57
2018-03-02T21:00:01.299Z,-0.56
2018-03-02T21:02:27.520Z,-0.56
2018-03-02T21:04:53.779Z,-0.55
2018-03-02T21:07:20.000Z,-0.51
2018-03-02T21:09:46.406Z,-0.48
2018-03-02T21:12:12.671Z,-0.48
2018-03-02T21:14:39.004Z,-0.48
2018-03-02T21:17:05.303Z,-0.47
2018-03-02T21:19:31.556Z,-0.49
2018-03-02T21:21:57.779Z,-0.52
2018-03-02T21:24:24.019Z,-0.52
2018-03-02T21:26:50.262Z,-0.60
2018-03-02T21:29:16.515Z,-0.65
2018-03-02T21:31:42.792Z,-0.63
2018-03-02T21:34:09.026Z,-0.60
2018-03-02T21:36:35.273Z,-0.62
2018-03-02T21:39:01.508Z,-0.61
2018-03-02T21:41:27.763Z,-0.68
2018-03-02T21:43:53.990Z,-0.67
2018-03-02T21:46:20.216Z,-0.66
2018-03-02T21:48:46.471Z,-0.65
2018-03-02T21:51:12.708Z,-0.67
2018-03-02T21:53:38.979Z,-0.64
2018-03-02T21:56:05.211Z,-0.66
2018-03-02T21:58:31.432Z,-0.71
2018-03-02T22:00:57.703Z,-0.81
2018-03-02T22:03:23.939Z,-0.86
2018-03-02T22:05:50.194Z,-0.87
2018-03-02T22:08:16.733Z,-0.79
2018-03-02T22:10:43.101Z,-0.77
2018-03-02T22:13:09.427Z,-0.81
2018-03-02T22:15:35.663Z,-0.85
2018-03-02T22:18:01.919Z,-0.90
2018-03-02T22:20:28.131Z,-0.94
2018-03-02T22:22:54.363Z,-0.97
2018-03-02T22:25:20.599Z,-0.97
2018-03-02T22:27:46.915Z,-1.00
2018-03-02T22:30:13.168Z,-1.02
2018-03-02T22:32:39.416Z,-0.99
2018-03-02T22:35:05.643Z,-1.03
2018-03-02T22:37:32.642Z,-1.07
2018-03-02T22:39:58.859Z,-1.13
2018-03-02T22:42:25.075Z,-1.16
2018-03-02T22:44:51.344Z,-1.18
2018-03-02T22:47:17.562Z,-1.18
2018-03-02T22:49:43.788Z,-1.19
2018-03-02T22:52:10.323Z,-1.26
2018-03-02T22:54:36.554Z,-1.35
2018-03-02T22:57:02.774Z,-1.36
2018-03-02T22:59:29.388Z,-1.37
2018-03-02T23:01:56.259Z,-1.42
2018-03-02T23:04:22.607Z,-1.46
2018-03-02T23:06:48.827Z,-1.47
2018-03-02T23:09:15.034Z,-1.49
2018-03-02T23:11:41.281Z,-1.46
2018-03-02T23:14:07.527Z,-1.53
2018-03-02T23:16:33.767Z,-1.48
2018-03-02T23:18:59.982Z,-1.43
2018-03-02T23:21:26.226Z,-1.50
2018-03-02T23:23:52.449Z,-1.55
2018-03-02T23:26:18.655Z,-1.61
2018-03-02T23:28:44.895Z,-1.54
2018-03-02T23:31:11.111Z,-1.48
2018-03-02T23:33:37.318Z,-1.49
2018-03-02T23:36:03.556Z,-1.49
2018-03-02T23:38:29.803Z,-1.54
2018-03-02T23:40:56.035Z,-1.51
2018-03-02T23:43:22.241Z,-1.53
2018-03-02T23:45:48.478Z,-1.50
2018-03-02T23:48:14.702Z,-1.47
2018-03-02T23:50:40.907Z,-1.47
2018-03-02T23:53:07.146Z,-1.47
2018-03-02T23:55:33.360Z,-1.46
2018-03-02T23:57:59.578Z,-1.42
